Weather at Chicago O'Hare International Airport

Public forecast

Using degrees Fahrenheit for public forecast. Weather courtesy of forecast.io.

Current aviation weather report (METAR) for Chicago O'Hare International Airport

Retrieved 2020/10/24 00:07 UTC (41 seconds ago):

KORD 240007Z 32009G19KT 10SM BKN025 OVC032 07/02 A3015 RMK AO2 T00670022

Aviation forecast (TAF) for Chicago O'Hare International Airport

Retrieved 2020-10-24 00:33 UTC (0 seconds ago):

TAF KORD 232330Z 2400/2506 33012G19KT P6SM SCT018 OVC025 TEMPO 2400/2402 BKN018 FM240600 35010KT P6SM SCT022 BKN250 FM241800 01008KT P6SM FEW025 BKN035